sensor_id;sensor_type;location;lat;lon;timestamp;P1;durP1;ratioP1;P2;durP2;ratioP2
79249;SDS011;68679;51.030;7.584;2023-07-20T00:00:58;8.52;;;2.42;;
79249;SDS011;68679;51.030;7.584;2023-07-20T00:03:23;8.43;;;2.80;;
79249;SDS011;68679;51.030;7.584;2023-07-20T00:05:50;5.45;;;2.80;;
79249;SDS011;68679;51.030;7.584;2023-07-20T00:08:16;4.90;;;2.55;;
79249;SDS011;68679;51.030;7.584;2023-07-20T00:10:42;6.15;;;2.63;;
79249;SDS011;68679;51.030;7.584;2023-07-20T00:13:08;6.78;;;3.13;;
79249;SDS011;68679;51.030;7.584;2023-07-20T00:15:34;7.50;;;2.63;;
79249;SDS011;68679;51.030;7.584;2023-07-20T00:17:59;5.35;;;2.95;;
79249;SDS011;68679;51.030;7.584;2023-07-20T00:20:24;5.17;;;2.73;;
79249;SDS011;68679;51.030;7.584;2023-07-20T00:22:50;8.05;;;2.85;;
79249;SDS011;68679;51.030;7.584;2023-07-20T00:25:16;6.45;;;2.63;;
79249;SDS011;68679;51.030;7.584;2023-07-20T00:27:42;6.63;;;2.30;;
79249;SDS011;68679;51.030;7.584;2023-07-20T00:30:07;5.70;;;2.50;;
79249;SDS011;68679;51.030;7.584;2023-07-20T00:32:33;5.65;;;2.65;;
79249;SDS011;68679;51.030;7.584;2023-07-20T00:34:58;10.05;;;2.63;;
79249;SDS011;68679;51.030;7.584;2023-07-20T00:37:23;5.03;;;2.47;;
79249;SDS011;68679;51.030;7.584;2023-07-20T00:39:48;9.03;;;2.50;;
79249;SDS011;68679;51.030;7.584;2023-07-20T00:42:14;4.07;;;2.30;;
79249;SDS011;68679;51.030;7.584;2023-07-20T00:44:39;4.63;;;2.63;;
79249;SDS011;68679;51.030;7.584;2023-07-20T00:47:05;5.10;;;2.77;;
79249;SDS011;68679;51.030;7.584;2023-07-20T00:49:31;7.13;;;2.47;;
79249;SDS011;68679;51.030;7.584;2023-07-20T00:51:57;3.80;;;2.67;;
79249;SDS011;68679;51.030;7.584;2023-07-20T00:54:22;5.82;;;3.25;;
79249;SDS011;68679;51.030;7.584;2023-07-20T00:56:48;7.55;;;2.55;;
79249;SDS011;68679;51.030;7.584;2023-07-20T00:59:14;6.53;;;3.03;;
79249;SDS011;68679;51.030;7.584;2023-07-20T01:01:39;6.82;;;2.40;;
79249;SDS011;68679;51.030;7.584;2023-07-20T01:04:04;7.15;;;2.90;;
79249;SDS011;68679;51.030;7.584;2023-07-20T01:14:17;8.85;;;2.83;;
79249;SDS011;68679;51.030;7.584;2023-07-20T01:16:43;4.88;;;2.60;;
79249;SDS011;68679;51.030;7.584;2023-07-20T01:19:09;7.07;;;2.55;;
79249;SDS011;68679;51.030;7.584;2023-07-20T01:21:37;6.45;;;2.60;;
79249;SDS011;68679;51.030;7.584;2023-07-20T01:24:27;5.55;;;2.75;;
79249;SDS011;68679;51.030;7.584;2023-07-20T01:27:18;3.95;;;2.53;;
79249;SDS011;68679;51.030;7.584;2023-07-20T01:33:03;4.78;;;2.33;;
79249;SDS011;68679;51.030;7.584;2023-07-20T01:35:30;4.97;;;2.30;;
79249;SDS011;68679;51.030;7.584;2023-07-20T01:37:57;6.57;;;2.70;;
79249;SDS011;68679;51.030;7.584;2023-07-20T01:40:24;6.03;;;2.70;;
79249;SDS011;68679;51.030;7.584;2023-07-20T01:42:50;4.65;;;2.60;;
79249;SDS011;68679;51.030;7.584;2023-07-20T01:45:16;6.00;;;2.67;;
79249;SDS011;68679;51.030;7.584;2023-07-20T01:47:42;6.13;;;2.50;;
79249;SDS011;68679;51.030;7.584;2023-07-20T01:50:07;4.97;;;3.03;;
79249;SDS011;68679;51.030;7.584;2023-07-20T01:52:33;5.10;;;2.85;;
79249;SDS011;68679;51.030;7.584;2023-07-20T01:54:59;5.37;;;2.67;;
79249;SDS011;68679;51.030;7.584;2023-07-20T01:57:24;4.93;;;2.77;;
79249;SDS011;68679;51.030;7.584;2023-07-20T01:59:49;6.73;;;2.70;;
79249;SDS011;68679;51.030;7.584;2023-07-20T02:02:14;6.87;;;3.13;;
79249;SDS011;68679;51.030;7.584;2023-07-20T02:04:40;5.30;;;2.60;;
79249;SDS011;68679;51.030;7.584;2023-07-20T02:07:05;7.77;;;3.33;;
79249;SDS011;68679;51.030;7.584;2023-07-20T02:09:30;8.23;;;2.72;;
79249;SDS011;68679;51.030;7.584;2023-07-20T02:11:56;5.03;;;2.50;;
79249;SDS011;68679;51.030;7.584;2023-07-20T02:14:21;7.83;;;2.77;;
79249;SDS011;68679;51.030;7.584;2023-07-20T02:16:47;5.57;;;2.40;;
79249;SDS011;68679;51.030;7.584;2023-07-20T02:19:16;5.28;;;2.88;;
79249;SDS011;68679;51.030;7.584;2023-07-20T02:21:42;4.30;;;2.47;;
79249;SDS011;68679;51.030;7.584;2023-07-20T02:24:07;6.07;;;2.57;;
79249;SDS011;68679;51.030;7.584;2023-07-20T02:26:32;5.13;;;2.47;;
79249;SDS011;68679;51.030;7.584;2023-07-20T02:28:57;4.37;;;2.63;;
79249;SDS011;68679;51.030;7.584;2023-07-20T02:31:23;5.00;;;2.63;;
79249;SDS011;68679;51.030;7.584;2023-07-20T02:33:48;9.00;;;3.00;;
79249;SDS011;68679;51.030;7.584;2023-07-20T02:36:13;7.83;;;3.00;;
79249;SDS011;68679;51.030;7.584;2023-07-20T02:38:38;4.67;;;2.70;;
79249;SDS011;68679;51.030;7.584;2023-07-20T02:41:04;4.87;;;2.50;;
79249;SDS011;68679;51.030;7.584;2023-07-20T02:43:29;5.97;;;2.63;;
79249;SDS011;68679;51.030;7.584;2023-07-20T02:45:54;7.72;;;2.75;;
79249;SDS011;68679;51.030;7.584;2023-07-20T02:48:20;8.17;;;2.60;;
79249;SDS011;68679;51.030;7.584;2023-07-20T02:50:45;7.37;;;2.70;;
79249;SDS011;68679;51.030;7.584;2023-07-20T02:53:10;10.23;;;2.70;;
79249;SDS011;68679;51.030;7.584;2023-07-20T02:55:35;7.50;;;3.00;;
79249;SDS011;68679;51.030;7.584;2023-07-20T02:58:01;7.87;;;2.90;;
79249;SDS011;68679;51.030;7.584;2023-07-20T03:00:26;10.38;;;3.50;;
79249;SDS011;68679;51.030;7.584;2023-07-20T03:02:52;6.75;;;2.70;;
79249;SDS011;68679;51.030;7.584;2023-07-20T03:05:21;6.78;;;2.72;;
79249;SDS011;68679;51.030;7.584;2023-07-20T03:07:47;7.72;;;2.65;;
79249;SDS011;68679;51.030;7.584;2023-07-20T03:10:13;5.75;;;2.92;;
79249;SDS011;68679;51.030;7.584;2023-07-20T03:12:39;20.23;;;3.13;;
79249;SDS011;68679;51.030;7.584;2023-07-20T03:15:04;8.27;;;3.20;;
79249;SDS011;68679;51.030;7.584;2023-07-20T03:17:30;10.32;;;2.55;;
79249;SDS011;68679;51.030;7.584;2023-07-20T03:19:55;6.40;;;2.93;;
79249;SDS011;68679;51.030;7.584;2023-07-20T03:22:20;8.30;;;2.83;;
79249;SDS011;68679;51.030;7.584;2023-07-20T03:24:46;6.85;;;2.80;;
79249;SDS011;68679;51.030;7.584;2023-07-20T03:27:12;8.38;;;2.88;;
79249;SDS011;68679;51.030;7.584;2023-07-20T03:29:37;5.70;;;2.70;;
79249;SDS011;68679;51.030;7.584;2023-07-20T03:32:03;6.15;;;2.67;;
79249;SDS011;68679;51.030;7.584;2023-07-20T03:34:28;6.45;;;2.80;;
79249;SDS011;68679;51.030;7.584;2023-07-20T03:36:53;9.53;;;3.17;;
79249;SDS011;68679;51.030;7.584;2023-07-20T03:39:19;6.17;;;2.60;;
79249;SDS011;68679;51.030;7.584;2023-07-20T03:41:44;6.10;;;3.00;;
79249;SDS011;68679;51.030;7.584;2023-07-20T03:44:09;6.53;;;2.77;;
79249;SDS011;68679;51.030;7.584;2023-07-20T03:46:35;11.77;;;3.10;;
79249;SDS011;68679;51.030;7.584;2023-07-20T03:49:00;8.13;;;3.00;;
79249;SDS011;68679;51.030;7.584;2023-07-20T03:51:26;9.55;;;3.35;;
79249;SDS011;68679;51.030;7.584;2023-07-20T03:53:51;9.75;;;3.30;;
79249;SDS011;68679;51.030;7.584;2023-07-20T03:56:17;6.22;;;2.90;;
79249;SDS011;68679;51.030;7.584;2023-07-20T03:58:42;7.70;;;3.13;;
79249;SDS011;68679;51.030;7.584;2023-07-20T04:01:08;8.20;;;3.27;;
79249;SDS011;68679;51.030;7.584;2023-07-20T04:03:34;10.43;;;2.97;;
79249;SDS011;68679;51.030;7.584;2023-07-20T04:06:00;7.47;;;3.60;;
79249;SDS011;68679;51.030;7.584;2023-07-20T04:08:25;9.33;;;3.20;;
79249;SDS011;68679;51.030;7.584;2023-07-20T04:10:51;6.43;;;3.40;;
79249;SDS011;68679;51.030;7.584;2023-07-20T04:13:16;12.02;;;3.65;;
79249;SDS011;68679;51.030;7.584;2023-07-20T04:15:42;6.03;;;3.33;;
79249;SDS011;68679;51.030;7.584;2023-07-20T04:18:07;9.23;;;3.42;;
79249;SDS011;68679;51.030;7.584;2023-07-20T04:20:33;7.78;;;3.00;;
79249;SDS011;68679;51.030;7.584;2023-07-20T04:22:58;8.20;;;3.70;;
79249;SDS011;68679;51.030;7.584;2023-07-20T04:25:23;11.80;;;3.87;;
79249;SDS011;68679;51.030;7.584;2023-07-20T04:27:49;8.07;;;3.63;;
79249;SDS011;68679;51.030;7.584;2023-07-20T04:30:16;8.70;;;3.60;;
79249;SDS011;68679;51.030;7.584;2023-07-20T04:32:45;7.97;;;3.97;;
79249;SDS011;68679;51.030;7.584;2023-07-20T04:35:17;12.80;;;4.68;;
79249;SDS011;68679;51.030;7.584;2023-07-20T04:38:02;9.77;;;4.22;;
79249;SDS011;68679;51.030;7.584;2023-07-20T04:40:27;8.80;;;3.80;;
79249;SDS011;68679;51.030;7.584;2023-07-20T04:42:53;9.03;;;5.00;;
79249;SDS011;68679;51.030;7.584;2023-07-20T04:45:18;8.57;;;4.80;;
79249;SDS011;68679;51.030;7.584;2023-07-20T04:47:44;14.70;;;6.15;;
79249;SDS011;68679;51.030;7.584;2023-07-20T04:50:09;11.93;;;5.17;;
79249;SDS011;68679;51.030;7.584;2023-07-20T04:52:34;13.20;;;5.22;;
79249;SDS011;68679;51.030;7.584;2023-07-20T04:55:00;9.83;;;5.00;;
79249;SDS011;68679;51.030;7.584;2023-07-20T04:57:25;10.03;;;5.50;;
79249;SDS011;68679;51.030;7.584;2023-07-20T04:59:51;12.53;;;6.53;;
79249;SDS011;68679;51.030;7.584;2023-07-20T05:02:16;11.60;;;6.30;;
79249;SDS011;68679;51.030;7.584;2023-07-20T05:04:41;14.70;;;7.20;;
79249;SDS011;68679;51.030;7.584;2023-07-20T05:07:07;11.33;;;7.17;;
79249;SDS011;68679;51.030;7.584;2023-07-20T05:09:32;13.90;;;7.23;;
79249;SDS011;68679;51.030;7.584;2023-07-20T05:11:57;14.73;;;7.17;;
79249;SDS011;68679;51.030;7.584;2023-07-20T05:14:22;13.63;;;7.07;;
79249;SDS011;68679;51.030;7.584;2023-07-20T05:16:48;12.57;;;7.83;;
79249;SDS011;68679;51.030;7.584;2023-07-20T05:19:13;14.40;;;8.10;;
79249;SDS011;68679;51.030;7.584;2023-07-20T05:21:38;14.65;;;7.43;;
79249;SDS011;68679;51.030;7.584;2023-07-20T05:24:04;14.67;;;8.97;;
79249;SDS011;68679;51.030;7.584;2023-07-20T05:26:30;12.45;;;7.15;;
79249;SDS011;68679;51.030;7.584;2023-07-20T05:28:55;13.87;;;7.57;;
79249;SDS011;68679;51.030;7.584;2023-07-20T05:31:20;13.67;;;7.90;;
79249;SDS011;68679;51.030;7.584;2023-07-20T05:33:46;17.53;;;8.33;;
79249;SDS011;68679;51.030;7.584;2023-07-20T05:36:11;17.27;;;9.30;;
79249;SDS011;68679;51.030;7.584;2023-07-20T05:38:36;13.70;;;8.00;;
79249;SDS011;68679;51.030;7.584;2023-07-20T05:41:01;15.27;;;8.87;;
79249;SDS011;68679;51.030;7.584;2023-07-20T05:43:27;16.30;;;8.97;;
79249;SDS011;68679;51.030;7.584;2023-07-20T05:45:52;14.65;;;7.78;;
79249;SDS011;68679;51.030;7.584;2023-07-20T05:48:18;13.60;;;7.78;;
79249;SDS011;68679;51.030;7.584;2023-07-20T05:50:43;15.77;;;9.80;;
79249;SDS011;68679;51.030;7.584;2023-07-20T05:53:09;14.27;;;8.37;;
79249;SDS011;68679;51.030;7.584;2023-07-20T05:55:34;14.93;;;8.50;;
79249;SDS011;68679;51.030;7.584;2023-07-20T05:57:59;17.83;;;7.87;;
79249;SDS011;68679;51.030;7.584;2023-07-20T06:00:25;17.73;;;8.60;;
79249;SDS011;68679;51.030;7.584;2023-07-20T06:02:51;15.65;;;7.03;;
79249;SDS011;68679;51.030;7.584;2023-07-20T06:05:18;13.40;;;7.70;;
79249;SDS011;68679;51.030;7.584;2023-07-20T06:07:44;11.70;;;7.18;;
79249;SDS011;68679;51.030;7.584;2023-07-20T06:10:09;13.33;;;7.60;;
79249;SDS011;68679;51.030;7.584;2023-07-20T06:12:34;12.13;;;7.33;;
79249;SDS011;68679;51.030;7.584;2023-07-20T06:15:03;12.63;;;6.00;;
79249;SDS011;68679;51.030;7.584;2023-07-20T06:17:29;17.48;;;8.10;;
79249;SDS011;68679;51.030;7.584;2023-07-20T06:19:55;17.52;;;9.88;;
79249;SDS011;68679;51.030;7.584;2023-07-20T06:22:20;11.37;;;7.97;;
79249;SDS011;68679;51.030;7.584;2023-07-20T06:24:46;16.23;;;7.53;;
79249;SDS011;68679;51.030;7.584;2023-07-20T06:27:11;16.60;;;9.13;;
79249;SDS011;68679;51.030;7.584;2023-07-20T06:29:37;13.70;;;6.90;;
79249;SDS011;68679;51.030;7.584;2023-07-20T06:32:03;10.65;;;5.78;;
79249;SDS011;68679;51.030;7.584;2023-07-20T06:34:28;9.35;;;5.93;;
79249;SDS011;68679;51.030;7.584;2023-07-20T06:36:54;13.27;;;7.15;;
79249;SDS011;68679;51.030;7.584;2023-07-20T06:39:20;12.67;;;7.00;;
79249;SDS011;68679;51.030;7.584;2023-07-20T06:41:45;9.82;;;6.13;;
79249;SDS011;68679;51.030;7.584;2023-07-20T06:44:11;12.20;;;8.57;;
79249;SDS011;68679;51.030;7.584;2023-07-20T06:46:36;14.37;;;6.93;;
79249;SDS011;68679;51.030;7.584;2023-07-20T06:49:02;16.27;;;6.88;;
79249;SDS011;68679;51.030;7.584;2023-07-20T06:51:27;10.40;;;6.30;;
79249;SDS011;68679;51.030;7.584;2023-07-20T06:53:53;11.77;;;7.33;;
79249;SDS011;68679;51.030;7.584;2023-07-20T06:56:18;12.50;;;6.93;;
79249;SDS011;68679;51.030;7.584;2023-07-20T06:58:43;13.20;;;8.90;;
79249;SDS011;68679;51.030;7.584;2023-07-20T07:01:08;15.37;;;9.27;;
79249;SDS011;68679;51.030;7.584;2023-07-20T07:03:34;13.10;;;7.83;;
79249;SDS011;68679;51.030;7.584;2023-07-20T07:05:59;12.27;;;6.53;;
79249;SDS011;68679;51.030;7.584;2023-07-20T07:08:25;11.85;;;7.40;;
79249;SDS011;68679;51.030;7.584;2023-07-20T07:10:51;10.40;;;7.20;;
79249;SDS011;68679;51.030;7.584;2023-07-20T07:13:17;11.25;;;6.80;;
79249;SDS011;68679;51.030;7.584;2023-07-20T07:15:42;11.00;;;6.67;;
79249;SDS011;68679;51.030;7.584;2023-07-20T07:18:07;12.52;;;8.27;;
79249;SDS011;68679;51.030;7.584;2023-07-20T07:20:33;12.50;;;6.87;;
79249;SDS011;68679;51.030;7.584;2023-07-20T07:22:58;10.60;;;7.60;;
79249;SDS011;68679;51.030;7.584;2023-07-20T07:25:23;11.13;;;6.73;;
79249;SDS011;68679;51.030;7.584;2023-07-20T07:27:49;10.97;;;5.53;;
79249;SDS011;68679;51.030;7.584;2023-07-20T07:30:14;15.13;;;9.03;;
79249;SDS011;68679;51.030;7.584;2023-07-20T07:32:39;12.02;;;7.35;;
79249;SDS011;68679;51.030;7.584;2023-07-20T07:35:05;13.20;;;7.47;;
79249;SDS011;68679;51.030;7.584;2023-07-20T07:37:31;11.30;;;7.00;;
79249;SDS011;68679;51.030;7.584;2023-07-20T07:39:56;11.80;;;6.83;;
79249;SDS011;68679;51.030;7.584;2023-07-20T07:42:22;13.18;;;7.40;;
79249;SDS011;68679;51.030;7.584;2023-07-20T07:44:47;12.55;;;6.60;;
79249;SDS011;68679;51.030;7.584;2023-07-20T07:47:13;9.25;;;6.72;;
79249;SDS011;68679;51.030;7.584;2023-07-20T07:49:38;11.07;;;7.43;;
79249;SDS011;68679;51.030;7.584;2023-07-20T07:52:04;9.40;;;6.88;;
79249;SDS011;68679;51.030;7.584;2023-07-20T07:54:29;10.65;;;6.68;;
79249;SDS011;68679;51.030;7.584;2023-07-20T07:56:54;12.53;;;8.40;;
79249;SDS011;68679;51.030;7.584;2023-07-20T07:59:20;10.80;;;5.68;;
79249;SDS011;68679;51.030;7.584;2023-07-20T08:01:46;10.02;;;6.55;;
79249;SDS011;68679;51.030;7.584;2023-07-20T08:04:12;9.48;;;6.80;;
79249;SDS011;68679;51.030;7.584;2023-07-20T08:06:38;11.50;;;5.70;;
79249;SDS011;68679;51.030;7.584;2023-07-20T08:09:03;14.10;;;7.10;;
79249;SDS011;68679;51.030;7.584;2023-07-20T08:11:29;9.77;;;7.03;;
79249;SDS011;68679;51.030;7.584;2023-07-20T08:13:55;9.30;;;5.90;;
79249;SDS011;68679;51.030;7.584;2023-07-20T08:16:21;9.23;;;5.53;;
79249;SDS011;68679;51.030;7.584;2023-07-20T08:18:46;9.53;;;5.20;;
79249;SDS011;68679;51.030;7.584;2023-07-20T08:21:12;11.65;;;4.97;;
79249;SDS011;68679;51.030;7.584;2023-07-20T08:23:37;7.60;;;4.93;;
79249;SDS011;68679;51.030;7.584;2023-07-20T08:26:03;7.87;;;4.90;;
79249;SDS011;68679;51.030;7.584;2023-07-20T08:28:28;8.77;;;6.38;;
79249;SDS011;68679;51.030;7.584;2023-07-20T08:30:54;8.88;;;5.80;;
79249;SDS011;68679;51.030;7.584;2023-07-20T08:33:19;11.57;;;5.13;;
79249;SDS011;68679;51.030;7.584;2023-07-20T08:35:45;8.02;;;5.15;;
79249;SDS011;68679;51.030;7.584;2023-07-20T08:38:11;10.95;;;5.57;;
79249;SDS011;68679;51.030;7.584;2023-07-20T08:40:41;8.63;;;5.60;;
79249;SDS011;68679;51.030;7.584;2023-07-20T08:43:08;9.23;;;5.35;;
79249;SDS011;68679;51.030;7.584;2023-07-20T08:45:35;9.13;;;5.45;;
79249;SDS011;68679;51.030;7.584;2023-07-20T08:48:02;8.80;;;5.20;;
79249;SDS011;68679;51.030;7.584;2023-07-20T08:50:30;10.55;;;5.78;;
79249;SDS011;68679;51.030;7.584;2023-07-20T08:52:56;14.02;;;6.20;;
79249;SDS011;68679;51.030;7.584;2023-07-20T08:55:23;10.98;;;6.32;;
79249;SDS011;68679;51.030;7.584;2023-07-20T08:57:51;10.82;;;6.70;;
79249;SDS011;68679;51.030;7.584;2023-07-20T09:00:21;10.32;;;6.90;;
79249;SDS011;68679;51.030;7.584;2023-07-20T09:02:48;10.50;;;6.32;;
79249;SDS011;68679;51.030;7.584;2023-07-20T09:05:16;10.55;;;7.00;;
79249;SDS011;68679;51.030;7.584;2023-07-20T09:07:42;9.05;;;5.97;;
79249;SDS011;68679;51.030;7.584;2023-07-20T09:10:08;13.35;;;8.32;;
79249;SDS011;68679;51.030;7.584;2023-07-20T09:12:40;12.13;;;7.15;;
79249;SDS011;68679;51.030;7.584;2023-07-20T09:15:07;11.90;;;7.63;;
79249;SDS011;68679;51.030;7.584;2023-07-20T09:17:34;14.98;;;8.57;;
79249;SDS011;68679;51.030;7.584;2023-07-20T09:20:03;13.67;;;7.23;;
79249;SDS011;68679;51.030;7.584;2023-07-20T09:22:35;11.18;;;6.18;;
79249;SDS011;68679;51.030;7.584;2023-07-20T09:25:01;11.38;;;7.07;;
79249;SDS011;68679;51.030;7.584;2023-07-20T09:27:37;12.25;;;7.88;;
79249;SDS011;68679;51.030;7.584;2023-07-20T09:32:34;10.93;;;6.15;;
79249;SDS011;68679;51.030;7.584;2023-07-20T09:35:03;9.50;;;5.57;;
79249;SDS011;68679;51.030;7.584;2023-07-20T09:37:29;11.50;;;7.07;;
79249;SDS011;68679;51.030;7.584;2023-07-20T09:39:58;10.18;;;6.25;;
79249;SDS011;68679;51.030;7.584;2023-07-20T09:42:24;7.97;;;5.68;;
79249;SDS011;68679;51.030;7.584;2023-07-20T09:44:50;8.30;;;5.35;;
79249;SDS011;68679;51.030;7.584;2023-07-20T09:47:22;10.82;;;4.90;;
79249;SDS011;68679;51.030;7.584;2023-07-20T09:49:48;7.32;;;4.22;;
79249;SDS011;68679;51.030;7.584;2023-07-20T09:52:14;19.70;;;5.68;;
79249;SDS011;68679;51.030;7.584;2023-07-20T09:54:40;21.02;;;5.85;;
79249;SDS011;68679;51.030;7.584;2023-07-20T09:57:06;11.63;;;5.28;;
79249;SDS011;68679;51.030;7.584;2023-07-20T09:59:32;6.15;;;4.03;;
79249;SDS011;68679;51.030;7.584;2023-07-20T10:01:58;6.77;;;4.77;;
79249;SDS011;68679;51.030;7.584;2023-07-20T10:04:26;6.50;;;4.43;;
79249;SDS011;68679;51.030;7.584;2023-07-20T10:06:54;12.95;;;5.00;;
79249;SDS011;68679;51.030;7.584;2023-07-20T10:09:23;7.28;;;4.22;;
79249;SDS011;68679;51.030;7.584;2023-07-20T10:11:49;5.57;;;3.50;;
79249;SDS011;68679;51.030;7.584;2023-07-20T10:14:16;6.30;;;4.40;;
79249;SDS011;68679;51.030;7.584;2023-07-20T10:16:49;8.68;;;5.55;;
79249;SDS011;68679;51.030;7.584;2023-07-20T10:19:25;7.40;;;5.05;;
79249;SDS011;68679;51.030;7.584;2023-07-20T10:22:03;7.97;;;5.25;;
79249;SDS011;68679;51.030;7.584;2023-07-20T10:24:39;7.22;;;4.85;;
79249;SDS011;68679;51.030;7.584;2023-07-20T10:27:06;8.60;;;5.57;;
79249;SDS011;68679;51.030;7.584;2023-07-20T10:29:31;7.85;;;5.15;;
79249;SDS011;68679;51.030;7.584;2023-07-20T10:31:58;7.18;;;5.55;;
79249;SDS011;68679;51.030;7.584;2023-07-20T10:34:23;6.55;;;5.38;;
79249;SDS011;68679;51.030;7.584;2023-07-20T10:36:49;7.05;;;5.65;;
79249;SDS011;68679;51.030;7.584;2023-07-20T10:39:24;7.18;;;5.38;;
79249;SDS011;68679;51.030;7.584;2023-07-20T10:41:59;7.15;;;5.18;;
79249;SDS011;68679;51.030;7.584;2023-07-20T10:44:26;5.05;;;4.07;;
79249;SDS011;68679;51.030;7.584;2023-07-20T10:46:51;6.43;;;3.87;;
79249;SDS011;68679;51.030;7.584;2023-07-20T10:49:24;5.05;;;3.95;;
79249;SDS011;68679;51.030;7.584;2023-07-20T10:51:56;5.70;;;3.67;;
79249;SDS011;68679;51.030;7.584;2023-07-20T10:56:48;4.60;;;3.20;;
79249;SDS011;68679;51.030;7.584;2023-07-20T10:59:17;5.90;;;3.30;;
79249;SDS011;68679;51.030;7.584;2023-07-20T11:01:44;4.35;;;2.85;;
79249;SDS011;68679;51.030;7.584;2023-07-20T11:04:10;6.65;;;3.58;;
79249;SDS011;68679;51.030;7.584;2023-07-20T11:06:36;4.20;;;3.20;;
79249;SDS011;68679;51.030;7.584;2023-07-20T11:11:36;5.03;;;3.55;;
79249;SDS011;68679;51.030;7.584;2023-07-20T11:14:04;5.07;;;4.00;;
79249;SDS011;68679;51.030;7.584;2023-07-20T11:18:58;4.17;;;3.10;;
79249;SDS011;68679;51.030;7.584;2023-07-20T11:21:24;5.10;;;3.25;;
79249;SDS011;68679;51.030;7.584;2023-07-20T11:23:49;18.30;;;4.47;;
79249;SDS011;68679;51.030;7.584;2023-07-20T11:26:16;44.90;;;7.03;;
79249;SDS011;68679;51.030;7.584;2023-07-20T11:28:44;10.05;;;3.75;;
79249;SDS011;68679;51.030;7.584;2023-07-20T11:31:14;4.30;;;2.40;;
79249;SDS011;68679;51.030;7.584;2023-07-20T11:33:41;3.95;;;2.90;;
79249;SDS011;68679;51.030;7.584;2023-07-20T11:36:08;7.65;;;3.47;;
79249;SDS011;68679;51.030;7.584;2023-07-20T11:38:34;6.88;;;3.22;;
79249;SDS011;68679;51.030;7.584;2023-07-20T11:40:59;17.52;;;4.00;;
79249;SDS011;68679;51.030;7.584;2023-07-20T11:43:24;6.60;;;3.03;;
79249;SDS011;68679;51.030;7.584;2023-07-20T11:45:51;4.53;;;2.90;;
79249;SDS011;68679;51.030;7.584;2023-07-20T11:48:16;7.68;;;3.25;;
79249;SDS011;68679;51.030;7.584;2023-07-20T11:50:42;3.72;;;2.83;;
79249;SDS011;68679;51.030;7.584;2023-07-20T11:53:07;4.67;;;3.23;;
79249;SDS011;68679;51.030;7.584;2023-07-20T11:55:33;6.00;;;2.97;;
79249;SDS011;68679;51.030;7.584;2023-07-20T12:00:27;4.45;;;3.17;;
79249;SDS011;68679;51.030;7.584;2023-07-20T12:02:53;4.07;;;3.40;;
79249;SDS011;68679;51.030;7.584;2023-07-20T12:05:19;5.65;;;3.17;;
79249;SDS011;68679;51.030;7.584;2023-07-20T12:07:47;4.45;;;2.90;;
79249;SDS011;68679;51.030;7.584;2023-07-20T12:10:12;4.53;;;2.95;;
79249;SDS011;68679;51.030;7.584;2023-07-20T12:12:43;3.55;;;2.47;;
79249;SDS011;68679;51.030;7.584;2023-07-20T12:15:13;3.92;;;2.90;;
79249;SDS011;68679;51.030;7.584;2023-07-20T12:17:49;5.80;;;3.20;;
79249;SDS011;68679;51.030;7.584;2023-07-20T12:20:32;4.18;;;2.95;;
79249;SDS011;68679;51.030;7.584;2023-07-20T12:23:00;4.63;;;3.20;;
79249;SDS011;68679;51.030;7.584;2023-07-20T12:25:44;3.75;;;2.83;;
79249;SDS011;68679;51.030;7.584;2023-07-20T12:28:11;4.72;;;2.90;;
79249;SDS011;68679;51.030;7.584;2023-07-20T12:30:37;4.75;;;3.03;;
79249;SDS011;68679;51.030;7.584;2023-07-20T12:33:03;3.80;;;2.65;;
79249;SDS011;68679;51.030;7.584;2023-07-20T12:35:30;4.00;;;2.92;;
79249;SDS011;68679;51.030;7.584;2023-07-20T12:37:55;4.18;;;3.28;;
79249;SDS011;68679;51.030;7.584;2023-07-20T12:40:21;4.00;;;3.10;;
79249;SDS011;68679;51.030;7.584;2023-07-20T12:42:46;3.90;;;2.95;;
79249;SDS011;68679;51.030;7.584;2023-07-20T12:45:12;5.20;;;3.53;;
79249;SDS011;68679;51.030;7.584;2023-07-20T12:47:38;3.92;;;2.90;;
79249;SDS011;68679;51.030;7.584;2023-07-20T12:50:04;5.18;;;3.05;;
79249;SDS011;68679;51.030;7.584;2023-07-20T12:52:31;4.60;;;3.30;;
79249;SDS011;68679;51.030;7.584;2023-07-20T12:54:56;5.30;;;3.00;;
79249;SDS011;68679;51.030;7.584;2023-07-20T12:57:21;7.03;;;3.50;;
79249;SDS011;68679;51.030;7.584;2023-07-20T12:59:47;3.83;;;3.05;;
79249;SDS011;68679;51.030;7.584;2023-07-20T13:02:12;5.60;;;2.90;;
79249;SDS011;68679;51.030;7.584;2023-07-20T13:04:37;4.57;;;2.73;;
79249;SDS011;68679;51.030;7.584;2023-07-20T13:07:03;5.43;;;2.97;;
79249;SDS011;68679;51.030;7.584;2023-07-20T13:09:28;4.18;;;3.00;;
79249;SDS011;68679;51.030;7.584;2023-07-20T13:11:53;4.40;;;2.70;;
79249;SDS011;68679;51.030;7.584;2023-07-20T13:14:19;4.60;;;2.97;;
79249;SDS011;68679;51.030;7.584;2023-07-20T13:16:44;4.20;;;2.70;;
79249;SDS011;68679;51.030;7.584;2023-07-20T13:19:09;4.30;;;3.10;;
79249;SDS011;68679;51.030;7.584;2023-07-20T13:21:34;3.60;;;2.70;;
79249;SDS011;68679;51.030;7.584;2023-07-20T13:24:00;5.43;;;2.80;;
79249;SDS011;68679;51.030;7.584;2023-07-20T13:26:25;4.00;;;2.57;;
79249;SDS011;68679;51.030;7.584;2023-07-20T13:28:50;5.22;;;3.03;;
79249;SDS011;68679;51.030;7.584;2023-07-20T13:31:16;3.60;;;2.60;;
79249;SDS011;68679;51.030;7.584;2023-07-20T13:33:42;3.55;;;2.47;;
79249;SDS011;68679;51.030;7.584;2023-07-20T13:36:07;5.07;;;2.90;;
79249;SDS011;68679;51.030;7.584;2023-07-20T13:38:33;5.70;;;2.67;;
79249;SDS011;68679;51.030;7.584;2023-07-20T13:40:58;3.33;;;2.67;;
79249;SDS011;68679;51.030;7.584;2023-07-20T13:43:23;3.95;;;2.65;;
79249;SDS011;68679;51.030;7.584;2023-07-20T13:45:48;3.17;;;2.00;;
79249;SDS011;68679;51.030;7.584;2023-07-20T13:48:14;4.32;;;2.10;;
79249;SDS011;68679;51.030;7.584;2023-07-20T13:50:40;3.63;;;2.13;;
79249;SDS011;68679;51.030;7.584;2023-07-20T13:53:05;3.50;;;2.30;;
79249;SDS011;68679;51.030;7.584;2023-07-20T13:55:30;5.88;;;2.17;;
79249;SDS011;68679;51.030;7.584;2023-07-20T13:57:58;4.97;;;2.15;;
79249;SDS011;68679;51.030;7.584;2023-07-20T14:00:24;2.80;;;1.70;;
79249;SDS011;68679;51.030;7.584;2023-07-20T14:02:51;3.70;;;2.20;;
79249;SDS011;68679;51.030;7.584;2023-07-20T14:05:16;7.68;;;2.83;;
79249;SDS011;68679;51.030;7.584;2023-07-20T14:07:42;3.38;;;2.13;;
79249;SDS011;68679;51.030;7.584;2023-07-20T14:10:08;4.68;;;2.15;;
79249;SDS011;68679;51.030;7.584;2023-07-20T14:12:33;3.67;;;1.90;;
79249;SDS011;68679;51.030;7.584;2023-07-20T14:14:59;4.07;;;1.90;;
79249;SDS011;68679;51.030;7.584;2023-07-20T14:17:24;3.65;;;1.60;;
79249;SDS011;68679;51.030;7.584;2023-07-20T14:19:50;2.80;;;1.40;;
79249;SDS011;68679;51.030;7.584;2023-07-20T14:22:16;2.70;;;1.48;;
79249;SDS011;68679;51.030;7.584;2023-07-20T14:24:41;3.23;;;1.47;;
79249;SDS011;68679;51.030;7.584;2023-07-20T14:27:06;3.10;;;1.13;;
79249;SDS011;68679;51.030;7.584;2023-07-20T14:29:32;3.27;;;1.30;;
79249;SDS011;68679;51.030;7.584;2023-07-20T14:31:57;2.00;;;1.30;;
79249;SDS011;68679;51.030;7.584;2023-07-20T14:34:23;2.58;;;1.27;;
79249;SDS011;68679;51.030;7.584;2023-07-20T14:36:48;1.93;;;1.20;;
79249;SDS011;68679;51.030;7.584;2023-07-20T14:39:14;2.42;;;1.27;;
79249;SDS011;68679;51.030;7.584;2023-07-20T14:41:40;2.90;;;1.02;;
79249;SDS011;68679;51.030;7.584;2023-07-20T14:44:05;2.20;;;1.17;;
79249;SDS011;68679;51.030;7.584;2023-07-20T14:46:30;2.20;;;1.25;;
79249;SDS011;68679;51.030;7.584;2023-07-20T14:48:57;3.10;;;1.35;;
79249;SDS011;68679;51.030;7.584;2023-07-20T14:51:23;2.03;;;1.27;;
79249;SDS011;68679;51.030;7.584;2023-07-20T14:53:48;3.10;;;1.27;;
79249;SDS011;68679;51.030;7.584;2023-07-20T14:56:13;2.63;;;1.43;;
79249;SDS011;68679;51.030;7.584;2023-07-20T14:58:39;2.20;;;1.30;;
79249;SDS011;68679;51.030;7.584;2023-07-20T15:01:04;3.67;;;1.50;;